sensor_id;sensor_type;location;lat;lon;timestamp;P1;durP1;ratioP1;P2;durP2;ratioP2
46719;SDS011;32452;51.382;-0.002;2023-02-08T00:02:35;39.17;;;19.85;;
46719;SDS011;32452;51.382;-0.002;2023-02-08T00:05:24;43.53;;;20.75;;
46719;SDS011;32452;51.382;-0.002;2023-02-08T00:08:39;45.17;;;20.02;;
46719;SDS011;32452;51.382;-0.002;2023-02-08T00:11:24;45.95;;;20.73;;
46719;SDS011;32452;51.382;-0.002;2023-02-08T00:14:10;42.80;;;19.98;;
46719;SDS011;32452;51.382;-0.002;2023-02-08T00:16:55;43.58;;;19.42;;
46719;SDS011;32452;51.382;-0.002;2023-02-08T00:19:41;42.50;;;19.20;;
46719;SDS011;32452;51.382;-0.002;2023-02-08T00:22:27;50.75;;;23.27;;
46719;SDS011;32452;51.382;-0.002;2023-02-08T00:25:12;45.70;;;20.17;;
46719;SDS011;32452;51.382;-0.002;2023-02-08T00:27:58;40.92;;;19.85;;
46719;SDS011;32452;51.382;-0.002;2023-02-08T00:30:44;44.38;;;20.63;;
46719;SDS011;32452;51.382;-0.002;2023-02-08T00:33:30;37.75;;;19.35;;
46719;SDS011;32452;51.382;-0.002;2023-02-08T00:36:16;38.92;;;19.25;;
46719;SDS011;32452;51.382;-0.002;2023-02-08T00:39:01;47.17;;;20.00;;
46719;SDS011;32452;51.382;-0.002;2023-02-08T00:41:47;38.38;;;18.90;;
46719;SDS011;32452;51.382;-0.002;2023-02-08T00:44:33;38.90;;;18.30;;
46719;SDS011;32452;51.382;-0.002;2023-02-08T00:47:18;36.13;;;16.05;;
46719;SDS011;32452;51.382;-0.002;2023-02-08T00:50:04;36.83;;;16.55;;
46719;SDS011;32452;51.382;-0.002;2023-02-08T00:52:50;31.45;;;14.85;;
46719;SDS011;32452;51.382;-0.002;2023-02-08T00:55:35;30.58;;;15.18;;
46719;SDS011;32452;51.382;-0.002;2023-02-08T00:58:24;34.13;;;16.25;;
46719;SDS011;32452;51.382;-0.002;2023-02-08T01:01:20;40.35;;;16.17;;
46719;SDS011;32452;51.382;-0.002;2023-02-08T01:04:06;31.60;;;15.60;;
46719;SDS011;32452;51.382;-0.002;2023-02-08T01:06:51;34.28;;;16.42;;
46719;SDS011;32452;51.382;-0.002;2023-02-08T01:09:37;36.88;;;16.10;;
46719;SDS011;32452;51.382;-0.002;2023-02-08T01:12:23;37.17;;;17.42;;
46719;SDS011;32452;51.382;-0.002;2023-02-08T01:15:09;29.30;;;15.10;;
46719;SDS011;32452;51.382;-0.002;2023-02-08T01:17:54;34.35;;;16.17;;
46719;SDS011;32452;51.382;-0.002;2023-02-08T01:20:40;31.27;;;15.00;;
46719;SDS011;32452;51.382;-0.002;2023-02-08T01:23:26;33.20;;;16.70;;
46719;SDS011;32452;51.382;-0.002;2023-02-08T01:26:12;30.77;;;13.93;;
46719;SDS011;32452;51.382;-0.002;2023-02-08T01:29:01;33.17;;;16.67;;
46719;SDS011;32452;51.382;-0.002;2023-02-08T01:31:47;29.25;;;14.25;;
46719;SDS011;32452;51.382;-0.002;2023-02-08T01:34:33;32.13;;;13.93;;
46719;SDS011;32452;51.382;-0.002;2023-02-08T01:37:18;30.58;;;13.98;;
46719;SDS011;32452;51.382;-0.002;2023-02-08T01:40:04;22.67;;;11.73;;
46719;SDS011;32452;51.382;-0.002;2023-02-08T01:42:50;24.92;;;11.05;;
46719;SDS011;32452;51.382;-0.002;2023-02-08T01:45:36;30.77;;;13.15;;
46719;SDS011;32452;51.382;-0.002;2023-02-08T01:48:23;30.92;;;12.75;;
46719;SDS011;32452;51.382;-0.002;2023-02-08T01:51:19;25.90;;;12.85;;
46719;SDS011;32452;51.382;-0.002;2023-02-08T01:54:09;25.85;;;13.70;;
46719;SDS011;32452;51.382;-0.002;2023-02-08T01:56:55;27.95;;;14.75;;
46719;SDS011;32452;51.382;-0.002;2023-02-08T01:59:43;26.73;;;13.80;;
46719;SDS011;32452;51.382;-0.002;2023-02-08T02:02:33;28.15;;;13.68;;
46719;SDS011;32452;51.382;-0.002;2023-02-08T02:05:24;27.95;;;13.60;;
46719;SDS011;32452;51.382;-0.002;2023-02-08T02:12:49;32.83;;;14.20;;
46719;SDS011;32452;51.382;-0.002;2023-02-08T02:15:37;30.85;;;14.15;;
46719;SDS011;32452;51.382;-0.002;2023-02-08T02:18:25;28.17;;;13.07;;
46719;SDS011;32452;51.382;-0.002;2023-02-08T02:27:27;32.92;;;14.07;;
46719;SDS011;32452;51.382;-0.002;2023-02-08T02:42:26;29.02;;;12.45;;
46719;SDS011;32452;51.382;-0.002;2023-02-08T02:45:57;34.55;;;16.58;;
46719;SDS011;32452;51.382;-0.002;2023-02-08T02:52:11;32.33;;;12.57;;
46719;SDS011;32452;51.382;-0.002;2023-02-08T02:55:07;22.60;;;11.18;;
46719;SDS011;32452;51.382;-0.002;2023-02-08T02:57:58;25.02;;;12.23;;
46719;SDS011;32452;51.382;-0.002;2023-02-08T03:00:50;25.40;;;11.73;;
46719;SDS011;32452;51.382;-0.002;2023-02-08T03:03:40;25.05;;;11.23;;
46719;SDS011;32452;51.382;-0.002;2023-02-08T03:06:48;23.52;;;11.30;;
46719;SDS011;32452;51.382;-0.002;2023-02-08T03:18:34;23.63;;;11.07;;
46719;SDS011;32452;51.382;-0.002;2023-02-08T03:21:42;34.90;;;11.75;;
46719;SDS011;32452;51.382;-0.002;2023-02-08T03:27:51;21.80;;;11.23;;
46719;SDS011;32452;51.382;-0.002;2023-02-08T03:34:07;23.77;;;10.38;;
46719;SDS011;32452;51.382;-0.002;2023-02-08T03:37:02;22.90;;;8.43;;
46719;SDS011;32452;51.382;-0.002;2023-02-08T03:39:54;24.55;;;9.68;;
46719;SDS011;32452;51.382;-0.002;2023-02-08T03:42:55;25.70;;;8.57;;
46719;SDS011;32452;51.382;-0.002;2023-02-08T03:45:54;22.98;;;10.52;;
46719;SDS011;32452;51.382;-0.002;2023-02-08T03:49:02;21.92;;;8.15;;
46719;SDS011;32452;51.382;-0.002;2023-02-08T03:51:53;18.67;;;8.60;;
46719;SDS011;32452;51.382;-0.002;2023-02-08T03:54:44;22.90;;;7.55;;
46719;SDS011;32452;51.382;-0.002;2023-02-08T03:57:36;23.67;;;7.97;;
46719;SDS011;32452;51.382;-0.002;2023-02-08T04:00:27;18.00;;;7.68;;
46719;SDS011;32452;51.382;-0.002;2023-02-08T04:03:26;19.98;;;8.43;;
46719;SDS011;32452;51.382;-0.002;2023-02-08T04:06:14;21.05;;;9.43;;
46719;SDS011;32452;51.382;-0.002;2023-02-08T04:09:01;22.98;;;8.15;;
46719;SDS011;32452;51.382;-0.002;2023-02-08T04:11:46;22.83;;;10.00;;
46719;SDS011;32452;51.382;-0.002;2023-02-08T04:14:32;22.33;;;8.85;;
46719;SDS011;32452;51.382;-0.002;2023-02-08T04:17:17;21.80;;;9.27;;
46719;SDS011;32452;51.382;-0.002;2023-02-08T04:20:03;21.38;;;8.70;;
46719;SDS011;32452;51.382;-0.002;2023-02-08T04:22:49;16.23;;;8.43;;
46719;SDS011;32452;51.382;-0.002;2023-02-08T04:25:34;21.67;;;8.30;;
46719;SDS011;32452;51.382;-0.002;2023-02-08T04:28:20;20.67;;;8.40;;
46719;SDS011;32452;51.382;-0.002;2023-02-08T04:31:06;22.08;;;10.93;;
46719;SDS011;32452;51.382;-0.002;2023-02-08T04:33:51;23.75;;;9.45;;
46719;SDS011;32452;51.382;-0.002;2023-02-08T04:36:36;24.10;;;10.68;;
46719;SDS011;32452;51.382;-0.002;2023-02-08T04:39:22;22.33;;;9.00;;
46719;SDS011;32452;51.382;-0.002;2023-02-08T04:42:07;21.17;;;10.05;;
46719;SDS011;32452;51.382;-0.002;2023-02-08T04:44:53;21.30;;;9.57;;
46719;SDS011;32452;51.382;-0.002;2023-02-08T04:47:38;20.73;;;10.48;;
46719;SDS011;32452;51.382;-0.002;2023-02-08T04:50:24;19.52;;;8.77;;
46719;SDS011;32452;51.382;-0.002;2023-02-08T04:53:10;26.58;;;9.30;;
46719;SDS011;32452;51.382;-0.002;2023-02-08T04:55:55;19.27;;;9.10;;
46719;SDS011;32452;51.382;-0.002;2023-02-08T04:58:41;25.48;;;10.00;;
46719;SDS011;32452;51.382;-0.002;2023-02-08T05:01:26;21.73;;;9.85;;
46719;SDS011;32452;51.382;-0.002;2023-02-08T05:04:12;20.67;;;9.07;;
46719;SDS011;32452;51.382;-0.002;2023-02-08T05:06:58;24.88;;;9.68;;
46719;SDS011;32452;51.382;-0.002;2023-02-08T05:09:43;20.77;;;9.57;;
46719;SDS011;32452;51.382;-0.002;2023-02-08T05:12:29;24.67;;;11.20;;
46719;SDS011;32452;51.382;-0.002;2023-02-08T05:15:15;26.60;;;12.20;;
46719;SDS011;32452;51.382;-0.002;2023-02-08T05:18:00;24.30;;;12.15;;
46719;SDS011;32452;51.382;-0.002;2023-02-08T05:20:52;23.40;;;10.35;;
46719;SDS011;32452;51.382;-0.002;2023-02-08T05:23:39;29.77;;;12.48;;
46719;SDS011;32452;51.382;-0.002;2023-02-08T05:26:25;30.73;;;11.82;;
46719;SDS011;32452;51.382;-0.002;2023-02-08T05:29:10;29.92;;;14.38;;
46719;SDS011;32452;51.382;-0.002;2023-02-08T05:31:55;23.90;;;11.57;;
46719;SDS011;32452;51.382;-0.002;2023-02-08T05:34:41;25.80;;;10.25;;
46719;SDS011;32452;51.382;-0.002;2023-02-08T05:37:26;23.25;;;11.77;;
46719;SDS011;32452;51.382;-0.002;2023-02-08T05:40:12;22.08;;;10.07;;
46719;SDS011;32452;51.382;-0.002;2023-02-08T05:42:57;27.02;;;10.95;;
46719;SDS011;32452;51.382;-0.002;2023-02-08T05:45:43;23.20;;;9.85;;
46719;SDS011;32452;51.382;-0.002;2023-02-08T05:48:29;21.67;;;8.98;;
46719;SDS011;32452;51.382;-0.002;2023-02-08T05:51:16;22.55;;;9.13;;
46719;SDS011;32452;51.382;-0.002;2023-02-08T05:54:01;27.13;;;10.45;;
46719;SDS011;32452;51.382;-0.002;2023-02-08T05:56:47;24.92;;;9.63;;
46719;SDS011;32452;51.382;-0.002;2023-02-08T05:59:34;25.48;;;10.40;;
46719;SDS011;32452;51.382;-0.002;2023-02-08T06:02:20;26.00;;;10.60;;
46719;SDS011;32452;51.382;-0.002;2023-02-08T06:05:05;25.48;;;10.55;;
46719;SDS011;32452;51.382;-0.002;2023-02-08T06:07:51;32.85;;;12.52;;
46719;SDS011;32452;51.382;-0.002;2023-02-08T06:10:37;30.60;;;10.48;;
46719;SDS011;32452;51.382;-0.002;2023-02-08T06:13:23;34.38;;;12.98;;
46719;SDS011;32452;51.382;-0.002;2023-02-08T06:16:09;35.22;;;13.18;;
46719;SDS011;32452;51.382;-0.002;2023-02-08T06:18:55;35.30;;;15.07;;
46719;SDS011;32452;51.382;-0.002;2023-02-08T06:21:41;31.75;;;13.95;;
46719;SDS011;32452;51.382;-0.002;2023-02-08T06:24:26;34.22;;;14.55;;
46719;SDS011;32452;51.382;-0.002;2023-02-08T06:27:11;38.65;;;16.60;;
46719;SDS011;32452;51.382;-0.002;2023-02-08T06:29:57;33.63;;;14.15;;
46719;SDS011;32452;51.382;-0.002;2023-02-08T06:32:42;33.08;;;13.82;;
46719;SDS011;32452;51.382;-0.002;2023-02-08T06:35:28;34.58;;;14.20;;
46719;SDS011;32452;51.382;-0.002;2023-02-08T06:38:13;35.88;;;13.60;;
46719;SDS011;32452;51.382;-0.002;2023-02-08T06:40:59;28.17;;;13.80;;
46719;SDS011;32452;51.382;-0.002;2023-02-08T06:43:44;33.90;;;13.40;;
46719;SDS011;32452;51.382;-0.002;2023-02-08T06:46:30;31.55;;;14.00;;
46719;SDS011;32452;51.382;-0.002;2023-02-08T06:49:15;38.83;;;16.85;;
46719;SDS011;32452;51.382;-0.002;2023-02-08T06:52:01;35.60;;;15.85;;
46719;SDS011;32452;51.382;-0.002;2023-02-08T06:54:47;37.10;;;16.27;;
46719;SDS011;32452;51.382;-0.002;2023-02-08T06:57:32;37.90;;;14.43;;
46719;SDS011;32452;51.382;-0.002;2023-02-08T07:00:18;39.80;;;15.88;;
46719;SDS011;32452;51.382;-0.002;2023-02-08T07:03:04;39.90;;;17.63;;
46719;SDS011;32452;51.382;-0.002;2023-02-08T07:05:49;37.05;;;15.27;;
46719;SDS011;32452;51.382;-0.002;2023-02-08T07:08:48;42.78;;;18.42;;
46719;SDS011;32452;51.382;-0.002;2023-02-08T07:11:34;39.45;;;16.20;;
46719;SDS011;32452;51.382;-0.002;2023-02-08T07:14:20;36.20;;;16.45;;
46719;SDS011;32452;51.382;-0.002;2023-02-08T07:17:06;35.53;;;14.90;;
46719;SDS011;32452;51.382;-0.002;2023-02-08T07:19:52;31.88;;;13.70;;
46719;SDS011;32452;51.382;-0.002;2023-02-08T07:22:38;31.63;;;14.73;;
46719;SDS011;32452;51.382;-0.002;2023-02-08T07:25:24;34.80;;;13.93;;
46719;SDS011;32452;51.382;-0.002;2023-02-08T07:28:10;31.88;;;14.77;;
46719;SDS011;32452;51.382;-0.002;2023-02-08T07:30:55;37.30;;;16.77;;
46719;SDS011;32452;51.382;-0.002;2023-02-08T07:33:41;41.15;;;15.68;;
46719;SDS011;32452;51.382;-0.002;2023-02-08T07:36:27;40.15;;;16.00;;
46719;SDS011;32452;51.382;-0.002;2023-02-08T07:39:13;41.90;;;16.80;;
46719;SDS011;32452;51.382;-0.002;2023-02-08T07:41:59;39.42;;;18.60;;
46719;SDS011;32452;51.382;-0.002;2023-02-08T07:44:45;39.15;;;16.90;;
46719;SDS011;32452;51.382;-0.002;2023-02-08T07:47:30;43.65;;;18.20;;
46719;SDS011;32452;51.382;-0.002;2023-02-08T07:50:16;41.08;;;17.15;;
46719;SDS011;32452;51.382;-0.002;2023-02-08T07:53:02;42.70;;;18.25;;
46719;SDS011;32452;51.382;-0.002;2023-02-08T07:55:48;37.70;;;18.13;;
46719;SDS011;32452;51.382;-0.002;2023-02-08T07:58:33;37.10;;;17.17;;
46719;SDS011;32452;51.382;-0.002;2023-02-08T08:01:19;37.90;;;18.52;;
46719;SDS011;32452;51.382;-0.002;2023-02-08T08:04:07;42.50;;;17.25;;
46719;SDS011;32452;51.382;-0.002;2023-02-08T08:06:52;41.92;;;19.33;;
46719;SDS011;32452;51.382;-0.002;2023-02-08T08:09:38;36.08;;;16.20;;
46719;SDS011;32452;51.382;-0.002;2023-02-08T08:12:24;39.60;;;16.80;;
46719;SDS011;32452;51.382;-0.002;2023-02-08T08:15:10;38.78;;;16.42;;
46719;SDS011;32452;51.382;-0.002;2023-02-08T08:17:55;32.33;;;16.52;;
46719;SDS011;32452;51.382;-0.002;2023-02-08T08:20:41;33.28;;;15.18;;
46719;SDS011;32452;51.382;-0.002;2023-02-08T08:23:26;35.92;;;15.27;;
46719;SDS011;32452;51.382;-0.002;2023-02-08T08:26:14;34.47;;;16.50;;
46719;SDS011;32452;51.382;-0.002;2023-02-08T08:29:02;33.42;;;14.50;;
46719;SDS011;32452;51.382;-0.002;2023-02-08T08:31:47;39.05;;;14.82;;
46719;SDS011;32452;51.382;-0.002;2023-02-08T08:34:33;34.42;;;15.45;;
46719;SDS011;32452;51.382;-0.002;2023-02-08T08:37:19;31.27;;;14.30;;
46719;SDS011;32452;51.382;-0.002;2023-02-08T08:40:04;38.47;;;17.90;;
46719;SDS011;32452;51.382;-0.002;2023-02-08T08:42:51;41.47;;;15.63;;
46719;SDS011;32452;51.382;-0.002;2023-02-08T08:45:36;38.22;;;15.07;;
46719;SDS011;32452;51.382;-0.002;2023-02-08T08:48:22;35.47;;;16.95;;
46719;SDS011;32452;51.382;-0.002;2023-02-08T08:51:08;32.83;;;14.90;;
46719;SDS011;32452;51.382;-0.002;2023-02-08T08:53:54;30.10;;;14.63;;
46719;SDS011;32452;51.382;-0.002;2023-02-08T08:56:39;34.35;;;15.25;;
46719;SDS011;32452;51.382;-0.002;2023-02-08T08:59:25;37.63;;;17.00;;
46719;SDS011;32452;51.382;-0.002;2023-02-08T09:02:12;30.30;;;15.40;;
46719;SDS011;32452;51.382;-0.002;2023-02-08T09:04:59;33.03;;;16.35;;
46719;SDS011;32452;51.382;-0.002;2023-02-08T09:07:46;32.33;;;15.50;;
46719;SDS011;32452;51.382;-0.002;2023-02-08T09:10:32;30.27;;;14.82;;
46719;SDS011;32452;51.382;-0.002;2023-02-08T09:13:17;32.20;;;13.55;;
46719;SDS011;32452;51.382;-0.002;2023-02-08T09:16:08;28.30;;;15.48;;
46719;SDS011;32452;51.382;-0.002;2023-02-08T09:18:54;25.02;;;13.30;;
46719;SDS011;32452;51.382;-0.002;2023-02-08T09:21:40;27.02;;;13.70;;
46719;SDS011;32452;51.382;-0.002;2023-02-08T09:24:27;24.33;;;13.02;;
46719;SDS011;32452;51.382;-0.002;2023-02-08T09:27:12;27.38;;;13.65;;
46719;SDS011;32452;51.382;-0.002;2023-02-08T09:29:58;24.48;;;13.25;;
46719;SDS011;32452;51.382;-0.002;2023-02-08T09:32:44;25.65;;;13.82;;
46719;SDS011;32452;51.382;-0.002;2023-02-08T09:35:29;26.50;;;14.68;;
46719;SDS011;32452;51.382;-0.002;2023-02-08T09:38:15;24.88;;;13.45;;
46719;SDS011;32452;51.382;-0.002;2023-02-08T09:48:03;24.23;;;14.23;;
46719;SDS011;32452;51.382;-0.002;2023-02-08T09:50:18;24.50;;;14.68;;
46719;SDS011;32452;51.382;-0.002;2023-02-08T09:53:33;25.67;;;15.23;;
46719;SDS011;32452;51.382;-0.002;2023-02-08T09:56:23;26.95;;;15.48;;
46719;SDS011;32452;51.382;-0.002;2023-02-08T09:59:23;26.87;;;15.97;;
46719;SDS011;32452;51.382;-0.002;2023-02-08T10:02:17;29.52;;;16.88;;
46719;SDS011;32452;51.382;-0.002;2023-02-08T10:05:14;26.92;;;16.92;;
46719;SDS011;32452;51.382;-0.002;2023-02-08T10:08:07;29.50;;;17.75;;
46719;SDS011;32452;51.382;-0.002;2023-02-08T10:14:36;36.63;;;17.48;;
46719;SDS011;32452;51.382;-0.002;2023-02-08T10:33:25;28.95;;;18.83;;
46719;SDS011;32452;51.382;-0.002;2023-02-08T10:36:24;27.92;;;18.65;;
46719;SDS011;32452;51.382;-0.002;2023-02-08T10:39:16;29.70;;;19.35;;
46719;SDS011;32452;51.382;-0.002;2023-02-08T10:42:12;27.15;;;19.02;;
46719;SDS011;32452;51.382;-0.002;2023-02-08T10:45:06;32.25;;;20.83;;
46719;SDS011;32452;51.382;-0.002;2023-02-08T10:48:11;30.23;;;19.88;;
46719;SDS011;32452;51.382;-0.002;2023-02-08T10:51:08;29.00;;;19.85;;
46719;SDS011;32452;51.382;-0.002;2023-02-08T10:54:00;30.38;;;19.48;;
46719;SDS011;32452;51.382;-0.002;2023-02-08T10:56:55;28.67;;;20.00;;
46719;SDS011;32452;51.382;-0.002;2023-02-08T10:59:46;28.67;;;19.27;;
46719;SDS011;32452;51.382;-0.002;2023-02-08T11:02:41;28.55;;;18.63;;
46719;SDS011;32452;51.382;-0.002;2023-02-08T11:05:31;28.58;;;19.08;;
46719;SDS011;32452;51.382;-0.002;2023-02-08T11:08:22;29.92;;;20.15;;
46719;SDS011;32452;51.382;-0.002;2023-02-08T11:11:09;29.88;;;18.85;;
46719;SDS011;32452;51.382;-0.002;2023-02-08T11:14:04;27.65;;;19.23;;
46719;SDS011;32452;51.382;-0.002;2023-02-08T11:16:57;29.80;;;19.90;;
46719;SDS011;32452;51.382;-0.002;2023-02-08T11:19:44;27.75;;;18.20;;
46719;SDS011;32452;51.382;-0.002;2023-02-08T11:22:30;22.25;;;16.23;;
46719;SDS011;32452;51.382;-0.002;2023-02-08T11:25:32;21.85;;;15.27;;
46719;SDS011;32452;51.382;-0.002;2023-02-08T11:28:24;20.50;;;15.23;;
46719;SDS011;32452;51.382;-0.002;2023-02-08T11:31:18;21.77;;;14.98;;
46719;SDS011;32452;51.382;-0.002;2023-02-08T11:36:53;21.23;;;13.57;;
46719;SDS011;32452;51.382;-0.002;2023-02-08T11:39:42;23.90;;;16.08;;
46719;SDS011;32452;51.382;-0.002;2023-02-08T11:42:39;22.48;;;15.73;;
46719;SDS011;32452;51.382;-0.002;2023-02-08T11:45:32;20.08;;;13.48;;
46719;SDS011;32452;51.382;-0.002;2023-02-08T11:51:27;22.30;;;14.85;;
46719;SDS011;32452;51.382;-0.002;2023-02-08T11:57:23;23.77;;;15.00;;
46719;SDS011;32452;51.382;-0.002;2023-02-08T12:00:15;22.48;;;14.82;;
46719;SDS011;32452;51.382;-0.002;2023-02-08T12:03:13;25.95;;;15.30;;
46719;SDS011;32452;51.382;-0.002;2023-02-08T12:22:09;22.52;;;16.08;;
46719;SDS011;32452;51.382;-0.002;2023-02-08T12:28:09;25.42;;;16.60;;
46719;SDS011;32452;51.382;-0.002;2023-02-08T12:31:08;24.38;;;16.75;;
46719;SDS011;32452;51.382;-0.002;2023-02-08T12:53:17;25.38;;;17.33;;
46719;SDS011;32452;51.382;-0.002;2023-02-08T12:56:16;26.95;;;16.42;;
46719;SDS011;32452;51.382;-0.002;2023-02-08T12:59:06;26.02;;;16.80;;
46719;SDS011;32452;51.382;-0.002;2023-02-08T13:02:03;23.60;;;17.20;;
46719;SDS011;32452;51.382;-0.002;2023-02-08T13:05:18;22.65;;;15.45;;
46719;SDS011;32452;51.382;-0.002;2023-02-08T13:14:42;23.02;;;14.77;;
46719;SDS011;32452;51.382;-0.002;2023-02-08T13:17:35;20.20;;;13.88;;
46719;SDS011;32452;51.382;-0.002;2023-02-08T13:23:32;22.40;;;14.43;;
46719;SDS011;32452;51.382;-0.002;2023-02-08T13:26:36;21.90;;;13.52;;
46719;SDS011;32452;51.382;-0.002;2023-02-08T13:29:24;25.80;;;16.27;;
46719;SDS011;32452;51.382;-0.002;2023-02-08T13:32:17;25.45;;;15.80;;
46719;SDS011;32452;51.382;-0.002;2023-02-08T13:35:17;22.15;;;14.48;;
46719;SDS011;32452;51.382;-0.002;2023-02-08T13:38:30;23.75;;;14.68;;
46719;SDS011;32452;51.382;-0.002;2023-02-08T13:41:20;25.83;;;16.50;;
46719;SDS011;32452;51.382;-0.002;2023-02-08T13:44:19;25.95;;;16.95;;
46719;SDS011;32452;51.382;-0.002;2023-02-08T13:47:21;33.45;;;18.48;;
46719;SDS011;32452;51.382;-0.002;2023-02-08T14:02:21;30.85;;;19.70;;
46719;SDS011;32452;51.382;-0.002;2023-02-08T14:14:33;26.77;;;18.40;;
46719;SDS011;32452;51.382;-0.002;2023-02-08T14:17:25;27.92;;;17.33;;
46719;SDS011;32452;51.382;-0.002;2023-02-08T14:20:27;29.00;;;18.58;;
46719;SDS011;32452;51.382;-0.002;2023-02-08T14:23:24;31.88;;;17.77;;
46719;SDS011;32452;51.382;-0.002;2023-02-08T14:26:17;29.70;;;17.63;;
46719;SDS011;32452;51.382;-0.002;2023-02-08T14:29:15;26.83;;;16.73;;
46719;SDS011;32452;51.382;-0.002;2023-02-08T14:32:07;30.30;;;17.60;;
46719;SDS011;32452;51.382;-0.002;2023-02-08T14:35:01;28.63;;;17.05;;
46719;SDS011;32452;51.382;-0.002;2023-02-08T14:38:29;28.05;;;17.15;;
46719;SDS011;32452;51.382;-0.002;2023-02-08T14:41:07;28.63;;;16.77;;
46719;SDS011;32452;51.382;-0.002;2023-02-08T14:43:53;25.13;;;15.10;;
46719;SDS011;32452;51.382;-0.002;2023-02-08T14:46:41;27.60;;;17.38;;
46719;SDS011;32452;51.382;-0.002;2023-02-08T14:49:27;30.50;;;17.05;;
46719;SDS011;32452;51.382;-0.002;2023-02-08T14:52:22;29.10;;;16.58;;
46719;SDS011;32452;51.382;-0.002;2023-02-08T14:55:15;27.45;;;15.95;;
46719;SDS011;32452;51.382;-0.002;2023-02-08T14:58:06;26.40;;;14.45;;
46719;SDS011;32452;51.382;-0.002;2023-02-08T15:01:00;25.58;;;15.38;;
46719;SDS011;32452;51.382;-0.002;2023-02-08T15:03:50;21.80;;;11.70;;
46719;SDS011;32452;51.382;-0.002;2023-02-08T15:07:05;18.75;;;8.85;;
46719;SDS011;32452;51.382;-0.002;2023-02-08T15:10:18;18.23;;;8.70;;
46719;SDS011;32452;51.382;-0.002;2023-02-08T15:13:05;16.15;;;7.97;;
46719;SDS011;32452;51.382;-0.002;2023-02-08T15:16:03;15.23;;;8.25;;
46719;SDS011;32452;51.382;-0.002;2023-02-08T15:18:55;16.25;;;8.98;;
46719;SDS011;32452;51.382;-0.002;2023-02-08T15:21:41;19.08;;;9.85;;
46719;SDS011;32452;51.382;-0.002;2023-02-08T15:24:26;20.83;;;9.85;;
46719;SDS011;32452;51.382;-0.002;2023-02-08T15:27:20;15.68;;;9.60;;
46719;SDS011;32452;51.382;-0.002;2023-02-08T15:30:20;20.42;;;11.55;;
46719;SDS011;32452;51.382;-0.002;2023-02-08T15:33:14;19.58;;;10.68;;
46719;SDS011;32452;51.382;-0.002;2023-02-08T15:36:06;21.08;;;10.88;;
46719;SDS011;32452;51.382;-0.002;2023-02-08T15:41:55;22.02;;;11.98;;
46719;SDS011;32452;51.382;-0.002;2023-02-08T15:44:42;19.08;;;10.73;;
46719;SDS011;32452;51.382;-0.002;2023-02-08T15:47:29;23.25;;;11.85;;
46719;SDS011;32452;51.382;-0.002;2023-02-08T15:50:20;25.10;;;12.98;;
46719;SDS011;32452;51.382;-0.002;2023-02-08T15:53:06;22.98;;;11.60;;
46719;SDS011;32452;51.382;-0.002;2023-02-08T15:55:59;24.40;;;11.70;;
46719;SDS011;32452;51.382;-0.002;2023-02-08T15:58:49;24.05;;;13.27;;
46719;SDS011;32452;51.382;-0.002;2023-02-08T16:01:38;25.33;;;12.90;;
46719;SDS011;32452;51.382;-0.002;2023-02-08T16:04:24;27.10;;;14.05;;
46719;SDS011;32452;51.382;-0.002;2023-02-08T16:07:18;23.50;;;12.95;;
46719;SDS011;32452;51.382;-0.002;2023-02-08T16:13:45;25.35;;;14.63;;
46719;SDS011;32452;51.382;-0.002;2023-02-08T16:19:29;25.15;;;14.05;;
46719;SDS011;32452;51.382;-0.002;2023-02-08T16:25:22;27.90;;;14.15;;
46719;SDS011;32452;51.382;-0.002;2023-02-08T16:28:29;25.10;;;15.40;;
46719;SDS011;32452;51.382;-0.002;2023-02-08T16:31:18;27.23;;;15.02;;
46719;SDS011;32452;51.382;-0.002;2023-02-08T16:34:06;29.80;;;14.38;;
46719;SDS011;32452;51.382;-0.002;2023-02-08T16:36:59;29.02;;;14.15;;
46719;SDS011;32452;51.382;-0.002;2023-02-08T16:39:50;29.85;;;14.65;;
46719;SDS011;32452;51.382;-0.002;2023-02-08T16:42:36;24.85;;;14.32;;
46719;SDS011;32452;51.382;-0.002;2023-02-08T16:45:27;25.15;;;13.57;;
46719;SDS011;32452;51.382;-0.002;2023-02-08T16:48:26;27.02;;;14.93;;
46719;SDS011;32452;51.382;-0.002;2023-02-08T16:51:23;26.42;;;15.40;;
46719;SDS011;32452;51.382;-0.002;2023-02-08T16:54:14;26.73;;;14.02;;
46719;SDS011;32452;51.382;-0.002;2023-02-08T16:57:02;26.55;;;15.00;;
46719;SDS011;32452;51.382;-0.002;2023-02-08T16:59:48;26.85;;;15.40;;
46719;SDS011;32452;51.382;-0.002;2023-02-08T17:02:34;27.95;;;14.57;;
46719;SDS011;32452;51.382;-0.002;2023-02-08T17:05:20;30.17;;;15.50;;
46719;SDS011;32452;51.382;-0.002;2023-02-08T17:08:11;29.65;;;15.05;;
46719;SDS011;32452;51.382;-0.002;2023-02-08T17:10:59;27.48;;;15.18;;
46719;SDS011;32452;51.382;-0.002;2023-02-08T17:13:45;24.52;;;14.35;;
46719;SDS011;32452;51.382;-0.002;2023-02-08T17:16:32;30.40;;;14.85;;
46719;SDS011;32452;51.382;-0.002;2023-02-08T17:19:19;29.13;;;14.23;;
46719;SDS011;32452;51.382;-0.002;2023-02-08T17:22:08;28.67;;;14.30;;
46719;SDS011;32452;51.382;-0.002;2023-02-08T17:24:54;29.65;;;15.27;;
46719;SDS011;32452;51.382;-0.002;2023-02-08T17:27:44;27.92;;;14.82;;
46719;SDS011;32452;51.382;-0.002;2023-02-08T17:30:38;35.05;;;15.57;;
46719;SDS011;32452;51.382;-0.002;2023-02-08T17:33:25;29.38;;;16.40;;
46719;SDS011;32452;51.382;-0.002;2023-02-08T17:36:13;28.20;;;15.30;;
46719;SDS011;32452;51.382;-0.002;2023-02-08T17:39:01;29.60;;;17.40;;
46719;SDS011;32452;51.382;-0.002;2023-02-08T17:41:49;30.75;;;15.98;;
46719;SDS011;32452;51.382;-0.002;2023-02-08T17:44:36;29.38;;;15.55;;
46719;SDS011;32452;51.382;-0.002;2023-02-08T17:47:21;27.83;;;13.90;;
46719;SDS011;32452;51.382;-0.002;2023-02-08T17:50:08;33.58;;;15.27;;
46719;SDS011;32452;51.382;-0.002;2023-02-08T17:52:56;25.15;;;13.85;;
46719;SDS011;32452;51.382;-0.002;2023-02-08T17:55:43;28.45;;;14.63;;
46719;SDS011;32452;51.382;-0.002;2023-02-08T17:58:30;29.92;;;14.60;;
46719;SDS011;32452;51.382;-0.002;2023-02-08T18:01:16;27.73;;;14.52;;
46719;SDS011;32452;51.382;-0.002;2023-02-08T18:04:04;31.00;;;15.57;;
46719;SDS011;32452;51.382;-0.002;2023-02-08T18:06:50;30.60;;;15.10;;
46719;SDS011;32452;51.382;-0.002;2023-02-08T18:09:36;28.60;;;14.07;;
46719;SDS011;32452;51.382;-0.002;2023-02-08T18:12:22;30.95;;;15.35;;
46719;SDS011;32452;51.382;-0.002;2023-02-08T18:15:12;36.47;;;14.55;;
46719;SDS011;32452;51.382;-0.002;2023-02-08T18:18:03;31.73;;;16.42;;
46719;SDS011;32452;51.382;-0.002;2023-02-08T18:20:50;36.55;;;16.95;;
46719;SDS011;32452;51.382;-0.002;2023-02-08T18:23:36;35.35;;;15.43;;
46719;SDS011;32452;51.382;-0.002;2023-02-08T18:26:23;34.38;;;15.25;;
46719;SDS011;32452;51.382;-0.002;2023-02-08T18:29:09;32.28;;;15.10;;
46719;SDS011;32452;51.382;-0.002;2023-02-08T18:31:55;33.25;;;15.30;;
46719;SDS011;32452;51.382;-0.002;2023-02-08T18:34:41;34.17;;;16.17;;
46719;SDS011;32452;51.382;-0.002;2023-02-08T18:37:29;38.55;;;17.20;;
46719;SDS011;32452;51.382;-0.002;2023-02-08T18:40:15;36.13;;;15.70;;
46719;SDS011;32452;51.382;-0.002;2023-02-08T18:43:02;33.20;;;14.35;;
46719;SDS011;32452;51.382;-0.002;2023-02-08T18:45:58;29.02;;;14.20;;
46719;SDS011;32452;51.382;-0.002;2023-02-08T18:48:56;30.60;;;15.75;;
46719;SDS011;32452;51.382;-0.002;2023-02-08T18:51:42;36.30;;;17.48;;
46719;SDS011;32452;51.382;-0.002;2023-02-08T18:54:29;37.88;;;18.90;;
46719;SDS011;32452;51.382;-0.002;2023-02-08T18:57:17;33.80;;;17.42;;
46719;SDS011;32452;51.382;-0.002;2023-02-08T19:00:06;35.78;;;19.23;;